createdAt,value
2022-11-15T00:00:35.454Z,41.22
2022-11-15T00:03:01.884Z,41.72
2022-11-15T00:05:28.312Z,42.33
2022-11-15T00:07:56.193Z,41.97
2022-11-15T00:10:22.821Z,42.70
2022-11-15T00:12:49.238Z,42.67
2022-11-15T00:15:15.965Z,43.17
2022-11-15T00:17:42.361Z,42.50
2022-11-15T00:20:09.270Z,42.50
2022-11-15T00:22:35.685Z,42.20
2022-11-15T00:25:02.119Z,43.38
2022-11-15T00:27:28.550Z,41.72
2022-11-15T00:29:55.138Z,43.30
2022-11-15T00:32:21.576Z,42.65
2022-11-15T00:34:47.985Z,43.40
2022-11-15T00:37:14.421Z,44.35
2022-11-15T00:39:40.810Z,43.20
2022-11-15T00:42:07.219Z,44.25
2022-11-15T00:44:33.653Z,45.30
2022-11-15T00:47:00.495Z,45.70
2022-11-15T00:49:26.909Z,46.40
2022-11-15T00:51:53.290Z,45.80
2022-11-15T00:54:19.669Z,46.92
2022-11-15T00:56:46.165Z,48.45
2022-11-15T00:59:12.594Z,49.15
2022-11-15T01:01:38.992Z,48.25
2022-11-15T01:04:05.455Z,46.78
2022-11-15T01:06:31.898Z,47.53
2022-11-15T01:08:58.296Z,47.40
2022-11-15T01:11:24.719Z,46.25
2022-11-15T01:13:51.189Z,47.17
2022-11-15T01:16:19.540Z,47.55
2022-11-15T01:18:46.781Z,47.90
2022-11-15T01:21:18.384Z,48.05
2022-11-15T01:26:14.400Z,47.28
2022-11-15T01:28:42.693Z,48.92
2022-11-15T01:31:17.764Z,48.35
2022-11-15T01:33:44.332Z,49.42
2022-11-15T01:36:19.641Z,51.00
2022-11-15T01:38:46.096Z,49.92
2022-11-15T01:41:21.421Z,49.30
2022-11-15T01:43:50.066Z,52.45
2022-11-15T01:46:22.235Z,50.47
2022-11-15T01:48:50.613Z,48.15
2022-11-15T01:51:19.867Z,49.13
2022-11-15T01:53:52.822Z,49.42
2022-11-15T01:56:24.332Z,48.70
2022-11-15T01:58:52.509Z,50.72
2022-11-15T02:01:19.037Z,50.90
2022-11-15T02:04:00.699Z,49.97
2022-11-15T02:07:22.682Z,51.05
2022-11-15T02:09:50.978Z,49.20
2022-11-15T02:12:20.806Z,51.33
2022-11-15T02:14:52.578Z,52.55
2022-11-15T02:17:41.975Z,50.97
2022-11-15T02:20:14.509Z,51.72
2022-11-15T02:22:55.883Z,52.00
2022-11-15T02:25:38.874Z,50.20
2022-11-15T02:28:31.843Z,51.95
2022-11-15T02:31:11.087Z,50.55
2022-11-15T02:33:48.341Z,50.85
2022-11-15T02:36:22.578Z,50.10
2022-11-15T02:39:17.239Z,50.30
2022-11-15T02:41:53.258Z,50.10
2022-11-15T02:44:33.149Z,50.20
2022-11-15T02:47:14.893Z,49.08
2022-11-15T02:52:21.407Z,47.65
2022-11-15T02:55:01.948Z,45.83
2022-11-15T02:57:45.150Z,49.22
2022-11-15T03:00:13.841Z,49.38
2022-11-15T03:02:59.871Z,47.42
2022-11-15T03:05:45.228Z,47.65
2022-11-15T03:08:14.376Z,48.30
2022-11-15T03:10:46.962Z,48.88
2022-11-15T03:13:27.493Z,45.70
2022-11-15T03:16:07.649Z,48.13
2022-11-15T03:18:39.552Z,47.97
2022-11-15T03:21:09.596Z,49.42
2022-11-15T03:23:38.111Z,47.47
2022-11-15T03:26:08.114Z,47.28
2022-11-15T03:28:45.196Z,49.22
2022-11-15T03:31:33.858Z,49.80
2022-11-15T03:34:05.269Z,47.33
2022-11-15T03:36:35.441Z,50.20
2022-11-15T03:39:06.121Z,48.15
2022-11-15T03:41:44.971Z,48.37
2022-11-15T03:44:32.762Z,48.22
2022-11-15T03:47:14.441Z,46.97
2022-11-15T03:52:11.605Z,47.92
2022-11-15T03:54:48.490Z,50.08
2022-11-15T03:57:14.954Z,48.03
2022-11-15T03:59:41.442Z,47.42
2022-11-15T04:02:07.874Z,49.60
2022-11-15T04:04:34.293Z,49.63
2022-11-15T04:07:00.837Z,48.33
2022-11-15T04:09:27.285Z,49.40
2022-11-15T04:11:53.721Z,48.13
2022-11-15T04:14:20.168Z,47.80
2022-11-15T04:16:46.580Z,49.50
2022-11-15T04:19:31.613Z,50.25
2022-11-15T04:22:16.567Z,48.63
2022-11-15T04:24:42.943Z,49.50
2022-11-15T04:27:09.419Z,49.13
2022-11-15T04:29:35.850Z,49.03
2022-11-15T04:32:04.473Z,49.30
2022-11-15T04:34:30.911Z,49.30
2022-11-15T04:37:16.949Z,45.88
2022-11-15T04:39:44.255Z,48.60
2022-11-15T04:42:11.224Z,47.78
2022-11-15T04:44:37.767Z,48.38
2022-11-15T04:47:04.633Z,49.83
2022-11-15T04:49:31.032Z,47.10
2022-11-15T04:51:57.453Z,47.13
2022-11-15T04:54:23.921Z,48.15
2022-11-15T04:56:50.348Z,46.70
2022-11-15T04:59:16.796Z,45.97
2022-11-15T05:01:45.013Z,44.53
2022-11-15T05:04:20.643Z,45.42
2022-11-15T05:06:51.504Z,45.15
2022-11-15T05:09:19.402Z,45.47
2022-11-15T05:11:46.373Z,45.92
2022-11-15T05:14:12.877Z,46.10
2022-11-15T05:16:39.451Z,46.08
2022-11-15T05:19:06.536Z,44.25
2022-11-15T05:21:33.716Z,44.05
2022-11-15T05:24:00.517Z,46.50
2022-11-15T05:26:27.835Z,46.35
2022-11-15T05:28:56.363Z,43.15
2022-11-15T05:31:22.987Z,44.67
2022-11-15T05:33:52.426Z,43.97
2022-11-15T05:36:28.549Z,47.63
2022-11-15T05:38:55.225Z,45.10
2022-11-15T05:41:27.747Z,47.75
2022-11-15T05:43:54.972Z,44.75
2022-11-15T05:46:21.507Z,44.00
2022-11-15T05:48:52.612Z,45.80
2022-11-15T05:51:21.744Z,44.65
2022-11-15T05:53:49.125Z,44.20
2022-11-15T05:56:15.897Z,43.42
2022-11-15T05:58:43.053Z,44.42
2022-11-15T06:01:10.025Z,44.72
2022-11-15T06:03:36.441Z,44.72
2022-11-15T06:06:02.975Z,44.40
2022-11-15T06:08:29.502Z,43.85
2022-11-15T06:10:56.011Z,43.75
2022-11-15T06:13:22.472Z,43.85
2022-11-15T06:15:49.236Z,43.35
2022-11-15T06:18:15.664Z,46.47
2022-11-15T06:20:42.113Z,44.42
2022-11-15T06:23:08.569Z,43.90
2022-11-15T06:25:35.021Z,45.70
2022-11-15T06:28:01.485Z,44.58
2022-11-15T06:30:28.045Z,44.75
2022-11-15T06:33:03.614Z,46.22
2022-11-15T06:35:30.993Z,46.17
2022-11-15T06:38:03.957Z,45.25
2022-11-15T06:40:30.364Z,43.85
2022-11-15T06:43:00.738Z,41.80
2022-11-15T06:45:27.504Z,43.03
2022-11-15T06:47:54.111Z,41.80
2022-11-15T06:50:20.744Z,44.85
2022-11-15T06:52:47.158Z,42.60
2022-11-15T06:55:13.795Z,44.58
2022-11-15T06:57:50.952Z,43.30
2022-11-15T07:00:21.893Z,44.22
2022-11-15T07:02:48.976Z,30.90
2022-11-15T07:05:16.781Z,42.20
2022-11-15T07:07:43.359Z,42.58
2022-11-15T07:10:10.432Z,42.60
2022-11-15T07:12:36.903Z,41.95
2022-11-15T07:15:03.579Z,44.65
2022-11-15T07:17:30.025Z,42.95
2022-11-15T07:19:56.438Z,40.92
2022-11-15T07:22:22.938Z,42.50
2022-11-15T07:24:49.340Z,46.30
2022-11-15T07:27:15.870Z,45.03
2022-11-15T07:29:42.398Z,43.42
2022-11-15T07:32:09.835Z,48.03
2022-11-15T07:34:36.253Z,45.38
2022-11-15T07:37:02.701Z,43.50
2022-11-15T07:39:29.080Z,45.05
2022-11-15T07:42:15.489Z,49.75
2022-11-15T07:44:41.931Z,48.75
2022-11-15T07:47:08.389Z,45.40
2022-11-15T07:49:34.824Z,45.47
2022-11-15T07:52:01.262Z,42.97
2022-11-15T07:54:27.674Z,42.00
2022-11-15T07:56:54.097Z,40.78
2022-11-15T07:59:20.600Z,42.38
2022-11-15T08:01:47.198Z,42.67
2022-11-15T08:04:13.820Z,40.83
2022-11-15T08:06:40.230Z,39.92
2022-11-15T08:09:06.666Z,42.63
2022-11-15T08:11:33.352Z,40.55
2022-11-15T08:14:00.168Z,40.85
2022-11-15T08:16:26.561Z,41.20
2022-11-15T08:18:53.169Z,40.65
2022-11-15T08:21:21.403Z,44.38
2022-11-15T08:23:48.209Z,42.38
2022-11-15T08:26:15.198Z,38.65
2022-11-15T08:28:42.650Z,39.50
2022-11-15T08:31:15.254Z,41.58
2022-11-15T08:33:41.689Z,40.72
2022-11-15T08:36:15.230Z,37.90
2022-11-15T08:38:42.239Z,38.22
2022-11-15T08:41:14.762Z,37.92
2022-11-15T08:43:41.276Z,39.22
2022-11-15T08:46:12.873Z,37.60
2022-11-15T08:51:05.724Z,35.10
2022-11-15T08:53:32.143Z,33.78
2022-11-15T08:55:58.534Z,34.03
2022-11-15T08:58:24.955Z,32.10
2022-11-15T09:00:51.415Z,33.20
2022-11-15T09:03:17.953Z,31.23
2022-11-15T09:05:44.347Z,31.63
2022-11-15T09:08:32.797Z,29.88
2022-11-15T09:10:57.274Z,29.33
2022-11-15T09:13:23.703Z,27.88
2022-11-15T09:15:50.179Z,27.77
2022-11-15T09:18:16.810Z,27.70
2022-11-15T09:20:43.365Z,26.92
2022-11-15T09:23:09.866Z,25.65
2022-11-15T09:25:37.465Z,24.75
2022-11-15T09:28:07.605Z,22.70
2022-11-15T09:30:34.008Z,22.38
2022-11-15T09:33:07.804Z,22.95
2022-11-15T09:35:34.301Z,22.30
2022-11-15T09:38:00.799Z,22.27
2022-11-15T09:40:27.478Z,20.83
2022-11-15T09:42:56.997Z,20.13
2022-11-15T09:45:32.904Z,20.27
2022-11-15T09:48:14.516Z,19.55
2022-11-15T09:50:47.758Z,19.58
2022-11-15T09:53:50.697Z,19.40
2022-11-15T09:56:24.048Z,19.60
2022-11-15T09:59:32.437Z,19.73
2022-11-15T10:02:33.881Z,19.25
2022-11-15T10:05:02.290Z,20.50
2022-11-15T10:07:44.141Z,18.88
2022-11-15T10:12:51.075Z,18.48
2022-11-15T10:15:23.524Z,19.63
2022-11-15T10:18:15.882Z,18.35
2022-11-15T10:20:56.828Z,18.80
2022-11-15T10:23:24.488Z,17.53
2022-11-15T10:25:57.789Z,18.02
2022-11-15T10:28:32.349Z,17.33
2022-11-15T10:31:01.920Z,18.50
2022-11-15T10:33:37.241Z,16.80
2022-11-15T10:36:09.808Z,16.13
2022-11-15T10:38:51.155Z,17.25
2022-11-15T10:41:20.566Z,16.90
2022-11-15T10:44:08.357Z,16.48
2022-11-15T10:46:51.689Z,17.98
2022-11-15T10:49:26.544Z,19.58
2022-11-15T10:51:58.897Z,19.17
2022-11-15T10:54:44.621Z,19.30
2022-11-15T10:57:20.359Z,18.80
2022-11-15T10:59:49.764Z,17.55
2022-11-15T11:02:57.572Z,18.25
2022-11-15T11:05:42.626Z,17.45
2022-11-15T11:08:12.185Z,16.73
2022-11-15T11:10:51.698Z,18.55
2022-11-15T11:13:34.118Z,18.92
2022-11-15T11:19:02.341Z,17.08
2022-11-15T11:21:50.536Z,16.83
2022-11-15T11:24:35.539Z,20.17
2022-11-15T11:27:33.350Z,17.15
2022-11-15T11:30:14.031Z,16.48
2022-11-15T11:32:56.443Z,16.63
2022-11-15T11:36:13.919Z,16.92
2022-11-15T11:38:40.282Z,29.13
2022-11-15T11:41:39.047Z,22.05
2022-11-15T11:44:29.930Z,111.50
2022-11-15T11:47:01.841Z,64.28
2022-11-15T11:49:28.165Z,45.00
2022-11-15T11:52:11.412Z,16.58
2022-11-15T11:54:52.439Z,24.33
2022-11-15T11:58:00.502Z,14.82
2022-11-15T12:00:29.460Z,14.38
2022-11-15T12:03:08.239Z,14.85
2022-11-15T12:05:40.875Z,14.32
2022-11-15T12:08:25.596Z,14.32
2022-11-15T12:11:02.239Z,14.75
2022-11-15T12:13:34.883Z,13.57
2022-11-15T12:16:10.497Z,12.65
2022-11-15T12:18:38.184Z,12.10
2022-11-15T12:21:39.655Z,11.48
2022-11-15T12:24:15.443Z,12.60
2022-11-15T12:26:53.065Z,11.40
2022-11-15T12:29:26.994Z,11.68
2022-11-15T12:31:57.850Z,11.90
2022-11-15T12:34:46.063Z,12.60
2022-11-15T12:37:38.619Z,11.77
2022-11-15T12:40:19.598Z,11.73
2022-11-15T12:43:15.117Z,11.18
2022-11-15T12:45:43.829Z,12.77
2022-11-15T12:48:19.116Z,13.27
2022-11-15T12:50:51.553Z,11.60
2022-11-15T12:53:36.105Z,12.25
2022-11-15T12:56:05.223Z,12.63
2022-11-15T12:58:51.858Z,12.50
2022-11-15T13:01:34.198Z,12.73
2022-11-15T13:04:19.607Z,13.68
2022-11-15T13:06:52.409Z,14.00
2022-11-15T13:09:30.801Z,14.27
2022-11-15T13:11:58.393Z,13.63
2022-11-15T13:14:44.213Z,14.18
2022-11-15T13:17:19.997Z,13.70
2022-11-15T13:20:16.273Z,13.57
2022-11-15T13:23:02.894Z,14.20
2022-11-15T13:25:58.782Z,15.68
2022-11-15T13:28:39.570Z,14.20
2022-11-15T13:31:18.073Z,13.68
2022-11-15T13:33:45.317Z,15.13
2022-11-15T13:36:20.763Z,12.57
2022-11-15T13:38:59.138Z,13.20
2022-11-15T13:41:32.144Z,12.43
2022-11-15T13:44:00.550Z,13.02
2022-11-15T13:46:34.692Z,14.43
2022-11-15T13:49:02.334Z,16.10
2022-11-15T13:51:55.333Z,16.10
2022-11-15T13:54:26.945Z,15.38
2022-11-15T13:59:26.104Z,15.32
2022-11-15T14:01:54.574Z,15.52
2022-11-15T14:04:24.089Z,14.60
2022-11-15T14:06:56.075Z,14.45
2022-11-15T14:09:40.918Z,13.45
2022-11-15T14:12:51.825Z,14.88
2022-11-15T14:15:27.108Z,15.13
2022-11-15T14:17:53.602Z,14.10
2022-11-15T14:20:27.014Z,15.73
2022-11-15T14:23:05.158Z,17.35
2022-11-15T14:25:36.110Z,17.00
2022-11-15T14:28:17.589Z,17.42
2022-11-15T14:30:48.107Z,18.35
2022-11-15T14:33:29.359Z,16.50
2022-11-15T14:35:58.123Z,16.60
2022-11-15T14:38:26.266Z,15.70
2022-11-15T14:40:52.890Z,17.08
2022-11-15T14:43:19.436Z,17.65
2022-11-15T14:45:45.885Z,16.70
2022-11-15T14:48:12.365Z,18.42
2022-11-15T14:50:39.670Z,17.92
2022-11-15T14:53:06.842Z,18.25
2022-11-15T14:55:37.175Z,18.17
2022-11-15T14:58:10.596Z,17.83
2022-11-15T15:00:39.339Z,18.35
2022-11-15T15:03:06.699Z,17.92
2022-11-15T15:05:36.044Z,17.98
2022-11-15T15:08:03.074Z,17.83
2022-11-15T15:10:40.215Z,17.92
2022-11-15T15:13:17.492Z,17.77
2022-11-15T15:15:44.052Z,18.60
2022-11-15T15:18:12.191Z,18.73
2022-11-15T15:20:40.898Z,17.85
2022-11-15T15:23:16.908Z,17.23
2022-11-15T15:25:44.553Z,19.20
2022-11-15T15:28:10.966Z,18.20
2022-11-15T15:30:37.407Z,19.13
2022-11-15T15:33:03.923Z,18.10
2022-11-15T15:35:33.290Z,18.80
2022-11-15T15:38:00.017Z,19.10
2022-11-15T15:40:29.078Z,17.83
2022-11-15T15:42:55.542Z,17.33
2022-11-15T15:45:22.081Z,18.63
2022-11-15T15:47:50.437Z,18.15
2022-11-15T15:50:28.442Z,19.30
2022-11-15T15:52:57.897Z,18.77
2022-11-15T15:55:25.244Z,18.98
2022-11-15T15:57:51.926Z,19.15
2022-11-15T16:00:20.660Z,19.80
2022-11-15T16:02:47.166Z,20.05
2022-11-15T16:05:13.958Z,21.40
2022-11-15T16:07:41.049Z,19.77
2022-11-15T16:10:27.253Z,19.95
2022-11-15T16:12:54.840Z,20.25
2022-11-15T16:15:22.822Z,20.08
2022-11-15T16:18:00.651Z,21.42
2022-11-15T16:20:36.788Z,20.83
2022-11-15T16:23:09.096Z,20.60
2022-11-15T16:25:49.429Z,22.80
2022-11-15T16:28:30.604Z,20.52
2022-11-15T16:31:10.656Z,20.58
2022-11-15T16:33:37.896Z,21.23
2022-11-15T16:36:06.176Z,21.05
2022-11-15T16:38:33.407Z,21.85
2022-11-15T16:41:00.045Z,21.88
2022-11-15T16:43:26.493Z,21.40
2022-11-15T16:45:52.910Z,22.42
2022-11-15T16:48:28.143Z,21.05
2022-11-15T16:50:56.369Z,21.80
2022-11-15T16:53:23.634Z,21.30
2022-11-15T16:55:50.040Z,22.05
2022-11-15T16:58:16.423Z,21.88
2022-11-15T17:00:42.933Z,22.95
2022-11-15T17:03:09.390Z,22.92
2022-11-15T17:05:35.921Z,23.35
2022-11-15T17:08:02.348Z,23.38
2022-11-15T17:10:28.838Z,23.70
2022-11-15T17:12:56.405Z,23.98
2022-11-15T17:15:24.494Z,25.67
2022-11-15T17:17:53.072Z,25.60
2022-11-15T17:20:21.700Z,26.80
2022-11-15T17:22:48.140Z,29.38
2022-11-15T17:25:15.090Z,28.45
2022-11-15T17:27:41.657Z,31.05
2022-11-15T17:30:09.968Z,31.67
2022-11-15T17:32:39.807Z,33.80
2022-11-15T17:35:14.914Z,33.60
2022-11-15T17:37:41.950Z,36.55
2022-11-15T17:40:08.993Z,35.75
2022-11-15T17:42:35.555Z,36.22
2022-11-15T17:45:06.726Z,36.63
2022-11-15T17:47:34.800Z,36.80
2022-11-15T17:50:01.328Z,39.05
2022-11-15T17:52:27.762Z,38.25
2022-11-15T17:54:54.141Z,40.10
2022-11-15T17:57:20.591Z,41.10
2022-11-15T17:59:48.711Z,41.55
2022-11-15T18:02:15.095Z,42.20
2022-11-15T18:04:41.600Z,43.25
2022-11-15T18:07:08.251Z,44.33
2022-11-15T18:09:34.804Z,45.83
2022-11-15T18:12:01.423Z,44.67
2022-11-15T18:14:27.911Z,47.53
2022-11-15T18:16:54.984Z,47.67
2022-11-15T18:19:22.609Z,45.03
2022-11-15T18:21:59.100Z,47.47
2022-11-15T18:24:34.740Z,46.83
2022-11-15T18:27:02.661Z,47.10
2022-11-15T18:29:29.116Z,48.55
2022-11-15T18:31:55.812Z,48.38
2022-11-15T18:34:24.084Z,47.53
2022-11-15T18:36:52.442Z,48.20
2022-11-15T18:39:19.448Z,47.67
2022-11-15T18:41:49.271Z,47.70
2022-11-15T18:44:16.360Z,45.05
2022-11-15T18:46:44.955Z,49.10
2022-11-15T18:49:13.266Z,48.03
2022-11-15T18:51:43.291Z,47.08
2022-11-15T18:54:11.386Z,48.20
2022-11-15T18:56:38.816Z,47.22
2022-11-15T18:59:06.161Z,43.67
2022-11-15T19:01:38.118Z,48.15
2022-11-15T19:04:11.676Z,45.78
2022-11-15T19:06:40.769Z,47.97
2022-11-15T19:09:08.364Z,47.40
2022-11-15T19:11:36.908Z,46.58
2022-11-15T19:14:05.978Z,46.13
2022-11-15T19:16:35.046Z,47.75
2022-11-15T19:19:06.806Z,47.13
2022-11-15T19:21:33.765Z,47.45
2022-11-15T19:24:01.374Z,49.50
2022-11-15T19:26:28.936Z,48.10
2022-11-15T19:29:00.307Z,47.03
2022-11-15T19:31:29.115Z,47.25
2022-11-15T19:33:56.183Z,48.00
2022-11-15T19:36:28.593Z,48.58
2022-11-15T19:38:56.064Z,49.25
2022-11-15T19:41:24.060Z,47.80
2022-11-15T19:43:51.567Z,47.53
2022-11-15T19:46:20.798Z,48.03
2022-11-15T19:48:48.145Z,47.85
2022-11-15T19:51:19.188Z,49.05
2022-11-15T19:53:45.917Z,51.88
2022-11-15T19:56:14.835Z,51.47
2022-11-15T19:58:42.075Z,50.67
2022-11-15T20:01:16.125Z,53.00
2022-11-15T20:03:42.533Z,51.88
2022-11-15T20:06:11.797Z,54.70
2022-11-15T20:08:38.604Z,54.22
2022-11-15T20:11:05.630Z,57.17
2022-11-15T20:13:32.243Z,56.65
2022-11-15T20:15:59.563Z,58.03
2022-11-15T20:18:27.416Z,56.38
2022-11-15T20:20:56.474Z,58.58
2022-11-15T20:23:22.957Z,57.20
2022-11-15T20:25:49.643Z,57.75
2022-11-15T20:28:21.681Z,55.65
2022-11-15T20:30:51.156Z,54.83
2022-11-15T20:33:17.826Z,54.78
2022-11-15T20:35:44.239Z,55.38
2022-11-15T20:38:11.721Z,56.30
2022-11-15T20:40:39.424Z,57.08
2022-11-15T20:43:06.705Z,56.40
2022-11-15T20:45:33.260Z,56.85
2022-11-15T20:47:59.718Z,57.13
2022-11-15T20:50:42.311Z,57.33
2022-11-15T20:53:11.605Z,55.20
2022-11-15T20:55:47.608Z,55.25
2022-11-15T20:58:15.680Z,56.92
2022-11-15T21:00:43.201Z,56.33
2022-11-15T21:03:09.734Z,56.78
2022-11-15T21:05:40.811Z,56.85
2022-11-15T21:08:08.156Z,54.90
2022-11-15T21:10:53.481Z,53.75
2022-11-15T21:13:20.347Z,55.45
2022-11-15T21:15:47.154Z,57.15
2022-11-15T21:18:14.036Z,56.97
2022-11-15T21:20:40.507Z,56.88
2022-11-15T21:23:07.088Z,57.45
2022-11-15T21:25:34.277Z,54.65
2022-11-15T21:28:00.723Z,56.40
2022-11-15T21:30:27.463Z,53.95
2022-11-15T21:32:53.876Z,55.95
2022-11-15T21:35:20.418Z,57.47
2022-11-15T21:37:50.556Z,57.47
2022-11-15T21:40:19.895Z,55.70
2022-11-15T21:42:46.678Z,54.65
2022-11-15T21:45:13.103Z,57.80
2022-11-15T21:47:44.673Z,55.97
2022-11-15T21:50:12.560Z,56.70
2022-11-15T21:52:39.132Z,57.70
2022-11-15T21:55:05.831Z,60.92
2022-11-15T21:57:32.442Z,57.70
2022-11-15T22:00:17.289Z,55.80
2022-11-15T22:02:43.688Z,59.00
2022-11-15T22:05:10.083Z,58.97
2022-11-15T22:07:36.636Z,56.40
2022-11-15T22:10:03.669Z,55.42
2022-11-15T22:12:30.144Z,56.20
2022-11-15T22:14:57.004Z,56.80
2022-11-15T22:17:24.575Z,56.08
2022-11-15T22:19:52.865Z,58.75
2022-11-15T22:22:19.686Z,56.60
2022-11-15T22:24:46.140Z,54.10
2022-11-15T22:27:12.615Z,53.50
2022-11-15T22:29:39.102Z,55.92
2022-11-15T22:32:05.564Z,53.35
2022-11-15T22:34:32.087Z,53.28
2022-11-15T22:37:19.701Z,52.63
2022-11-15T22:39:44.995Z,54.50
2022-11-15T22:42:11.562Z,53.63
2022-11-15T22:44:38.049Z,54.42
2022-11-15T22:47:04.603Z,55.10
2022-11-15T22:49:31.122Z,52.05
2022-11-15T22:51:57.551Z,54.38
2022-11-15T22:54:24.001Z,55.10
2022-11-15T22:56:50.475Z,54.97
2022-11-15T22:59:16.929Z,52.47
2022-11-15T23:01:43.423Z,52.92
2022-11-15T23:04:09.919Z,53.60
2022-11-15T23:06:36.477Z,56.42
2022-11-15T23:09:03.170Z,52.67
2022-11-15T23:11:48.205Z,55.70
2022-11-15T23:14:14.737Z,55.55
2022-11-15T23:16:41.542Z,55.45
2022-11-15T23:19:10.349Z,56.45
2022-11-15T23:21:58.195Z,54.53
2022-11-15T23:24:25.030Z,55.92
2022-11-15T23:26:54.781Z,55.70
2022-11-15T23:29:23.032Z,59.10
2022-11-15T23:32:07.939Z,57.90
2022-11-15T23:34:40.140Z,57.55
2022-11-15T23:37:08.329Z,56.17
2022-11-15T23:39:34.845Z,60.40
2022-11-15T23:42:06.064Z,57.67
2022-11-15T23:44:34.064Z,58.10
2022-11-15T23:47:00.564Z,57.17
2022-11-15T23:49:27.091Z,56.38
2022-11-15T23:51:53.904Z,59.38
2022-11-15T23:54:20.361Z,56.63
2022-11-15T23:56:46.880Z,55.35
2022-11-15T23:59:13.357Z,55.17
